Time;durP1;ratioP1;P1;durP2;ratioP2;P2;SDS_P1;SDS_P2;PMS_P1;PMS_P2;Temp;Humidity;BMP_temperature;BMP_pressure;BME280_temperature;BME280_humidity;BME280_pressure;Samples;Min_cycle;Max_cycle;Signal;HPM_P1;HPM_P2
2023/11/19 00:00:26;;;;;;;46.25;19.60;;;11.20;99.90;;;;;;5011597;28;20556;-75
2023/11/19 00:02:52;;;;;;;45.15;19.05;;;11.20;99.90;;;;;;5011817;28;20041;-75
2023/11/19 00:05:18;;;;;;;41.30;18.50;;;11.20;99.90;;;;;;5011856;28;20065;-75
2023/11/19 00:07:44;;;;;;;50.80;20.58;;;11.20;99.90;;;;;;5011885;28;20044;-75
2023/11/19 00:10:21;;;;;;;40.10;17.55;;;11.30;99.90;;;;;;5011733;28;20037;-75
2023/11/19 00:12:48;;;;;;;41.95;18.85;;;11.40;99.90;;;;;;5012099;28;20124;-75
2023/11/19 00:15:14;;;;;;;44.00;18.33;;;11.30;99.90;;;;;;5011339;28;20547;-75
2023/11/19 00:17:44;;;;;;;60.45;21.48;;;11.30;99.90;;;;;;5011679;28;20045;-75
2023/11/19 00:20:14;;;;;;;45.42;18.48;;;11.40;99.90;;;;;;5011442;28;20045;-74
2023/11/19 00:22:41;;;;;;;44.05;18.40;;;11.40;99.90;;;;;;4995175;28;20042;-75
2023/11/19 00:25:07;;;;;;;48.58;19.85;;;11.50;99.90;;;;;;5011272;28;20041;-75
2023/11/19 00:27:33;;;;;;;59.85;22.05;;;11.60;99.90;;;;;;5011547;28;20501;-75
2023/11/19 00:29:58;;;;;;;51.80;21.92;;;11.50;99.90;;;;;;5011294;28;20038;-75
2023/11/19 00:32:24;;;;;;;51.25;23.00;;;11.70;99.90;;;;;;5011446;28;20038;-75
2023/11/19 00:34:50;;;;;;;43.10;21.35;;;11.60;99.90;;;;;;5011120;28;20045;-75
2023/11/19 00:37:15;;;;;;;51.38;21.98;;;11.70;99.90;;;;;;4994991;28;20141;-75
2023/11/19 00:39:42;;;;;;;50.60;21.73;;;11.70;99.90;;;;;;5011551;28;20046;-75
2023/11/19 00:42:07;;;;;;;51.38;19.48;;;11.70;99.90;;;;;;5011243;28;20038;-75
2023/11/19 00:44:33;;;;;;;56.50;21.52;;;11.70;99.90;;;;;;5011152;28;20088;-75
2023/11/19 00:47:00;;;;;;;55.08;21.02;;;11.80;99.90;;;;;;5010950;28;20029;-75
2023/11/19 00:49:25;;;;;;;47.50;20.33;;;11.90;99.90;;;;;;5011173;28;20509;-75
2023/11/19 00:51:51;;;;;;;54.83;19.77;;;11.80;99.90;;;;;;5011201;28;20069;-75
2023/11/19 00:54:17;;;;;;;43.92;19.45;;;12.00;99.90;;;;;;5011218;28;20048;-75
2023/11/19 00:56:42;;;;;;;48.97;18.00;;;12.00;99.90;;;;;;5011140;28;20405;-75
2023/11/19 00:59:08;;;;;;;59.45;17.38;;;12.00;99.90;;;;;;5010804;28;20509;-75
2023/11/19 01:01:33;;;;;;;46.92;17.17;;;12.00;99.90;;;;;;5010946;28;20050;-75
2023/11/19 01:03:59;;;;;;;41.67;14.73;;;12.00;99.90;;;;;;5011260;28;20037;-75
2023/11/19 01:06:29;;;;;;;40.08;14.00;;;12.00;99.90;;;;;;5010624;28;20555;-75
2023/11/19 01:08:56;;;;;;;41.38;13.30;;;12.20;99.90;;;;;;5011168;28;20129;-75
2023/11/19 01:11:23;;;;;;;57.30;11.95;;;12.20;99.90;;;;;;5010819;28;20045;-75
2023/11/19 01:13:49;;;;;;;39.92;10.88;;;12.20;99.90;;;;;;5009857;28;20148;-76
2023/11/19 01:16:14;;;;;;;42.75;10.35;;;12.20;99.90;;;;;;5010733;28;20125;-75
2023/11/19 01:18:40;;;;;;;38.38;9.75;;;12.30;99.90;;;;;;5010793;28;20073;-76
2023/11/19 01:21:05;;;;;;;38.72;9.45;;;12.30;99.90;;;;;;5010881;28;20038;-75
2023/11/19 01:23:32;;;;;;;35.90;9.07;;;12.50;99.90;;;;;;5010634;28;20050;-75
2023/11/19 01:25:58;;;;;;;30.08;9.18;;;12.50;99.90;;;;;;5011698;28;20046;-76
2023/11/19 01:28:25;;;;;;;41.00;9.27;;;12.40;99.90;;;;;;5000957;28;20042;-76
2023/11/19 01:30:51;;;;;;;43.40;9.55;;;12.50;99.90;;;;;;5022409;28;20069;-76
2023/11/19 01:33:17;;;;;;;40.42;7.82;;;12.60;99.90;;;;;;5022018;28;20485;-76
2023/11/19 01:35:43;;;;;;;40.80;7.93;;;12.50;99.90;;;;;;5004341;28;20045;-76
2023/11/19 01:38:08;;;;;;;38.88;9.30;;;12.70;99.90;;;;;;5022183;28;20048;-75
2023/11/19 01:40:36;;;;;;;36.22;8.27;;;12.70;99.90;;;;;;5023722;28;20033;-76
2023/11/19 01:43:02;;;;;;;48.10;9.63;;;12.70;99.90;;;;;;5022777;28;20050;-76
2023/11/19 01:45:30;;;;;;;34.60;7.70;;;12.50;99.90;;;;;;5021065;28;20404;-76
2023/11/19 01:47:57;;;;;;;42.08;7.65;;;12.60;99.90;;;;;;5023757;28;20106;-76
2023/11/19 01:50:26;;;;;;;45.42;8.27;;;12.80;99.90;;;;;;5025096;28;20049;-76
2023/11/19 01:52:57;;;;;;;40.13;7.53;;;12.70;99.90;;;;;;5023745;28;20057;-75
2023/11/19 01:55:24;;;;;;;35.83;7.57;;;12.80;99.90;;;;;;5022541;28;20049;-75
2023/11/19 01:57:52;;;;;;;50.40;9.23;;;12.80;99.90;;;;;;5024517;28;20046;-76
2023/11/19 02:00:19;;;;;;;51.03;8.70;;;12.70;99.90;;;;;;5023656;28;20042;-76
2023/11/19 02:02:48;;;;;;;48.42;10.13;;;12.80;99.90;;;;;;5023428;28;20038;-76
2023/11/19 02:05:14;;;;;;;35.25;8.43;;;12.70;99.90;;;;;;5024847;28;20072;-75
2023/11/19 02:07:40;;;;;;;43.83;9.35;;;12.70;99.90;;;;;;5024445;28;20060;-76
2023/11/19 02:10:12;;;;;;;35.47;7.07;;;12.80;99.90;;;;;;5023910;28;20042;-76
2023/11/19 02:12:42;;;;;;;49.17;8.27;;;12.60;99.90;;;;;;5023889;28;20061;-75
2023/11/19 02:15:08;;;;;;;32.78;7.07;;;12.80;99.90;;;;;;5018724;28;20394;-75
2023/11/19 02:17:34;;;;;;;35.05;8.20;;;12.80;99.90;;;;;;5013955;28;20065;-75
2023/11/19 02:20:00;;;;;;;46.83;8.13;;;12.70;99.90;;;;;;5012952;28;20045;-75
2023/11/19 02:22:26;;;;;;;33.47;8.85;;;12.80;99.90;;;;;;5013310;28;20046;-75
2023/11/19 02:24:56;;;;;;;39.22;7.85;;;12.60;99.90;;;;;;5014854;28;20168;-75
2023/11/19 02:27:44;;;;;;;30.60;7.20;;;12.50;99.90;;;;;;5016591;28;20041;-75
2023/11/19 02:30:11;;;;;;;35.47;6.88;;;12.60;99.90;;;;;;5015278;28;20057;-75
2023/11/19 02:32:40;;;;;;;30.95;8.50;;;12.60;99.90;;;;;;5027919;28;20045;-76
2023/11/19 02:35:10;;;;;;;33.13;7.32;;;12.60;99.90;;;;;;5024123;28;20057;-76
2023/11/19 02:37:35;;;;;;;44.75;6.95;;;12.60;99.90;;;;;;5028760;28;20045;-75
2023/11/19 02:40:05;;;;;;;41.83;6.97;;;12.60;99.90;;;;;;5027956;28;20042;-75
2023/11/19 02:42:31;;;;;;;47.00;9.15;;;12.80;99.90;;;;;;5027669;28;20053;-75
2023/11/19 02:44:56;;;;;;;32.15;7.68;;;12.80;99.90;;;;;;5028201;28;20045;-76
2023/11/19 02:47:23;;;;;;;37.63;6.70;;;12.70;99.90;;;;;;5025640;28;20042;-75
2023/11/19 02:49:49;;;;;;;40.78;8.88;;;12.80;99.90;;;;;;5017927;28;20042;-75
2023/11/19 02:52:15;;;;;;;34.20;8.82;;;12.70;99.90;;;;;;5018190;28;20041;-75
2023/11/19 02:54:42;;;;;;;36.05;8.45;;;12.90;99.90;;;;;;5016064;28;20077;-75
2023/11/19 02:57:10;;;;;;;31.45;7.15;;;12.90;99.90;;;;;;5019742;28;20073;-75
2023/11/19 02:59:39;;;;;;;32.65;7.40;;;12.70;99.90;;;;;;5017666;28;20048;-75
2023/11/19 03:02:11;;;;;;;39.25;8.95;;;12.90;99.90;;;;;;5016262;28;20048;-75
2023/11/19 03:04:42;;;;;;;36.47;8.10;;;12.70;99.90;;;;;;5015884;28;20104;-75
2023/11/19 03:07:11;;;;;;;35.70;7.68;;;12.80;99.90;;;;;;5017054;28;20042;-76
2023/11/19 03:09:40;;;;;;;40.03;8.07;;;12.90;99.90;;;;;;5023703;28;20053;-76
2023/11/19 03:12:06;;;;;;;37.00;7.53;;;12.80;99.90;;;;;;5016886;28;20041;-75
2023/11/19 03:14:34;;;;;;;40.83;7.75;;;12.90;99.90;;;;;;5012344;28;20121;-75
2023/11/19 03:17:00;;;;;;;43.92;9.35;;;12.80;99.90;;;;;;5004830;28;20046;-76
2023/11/19 03:19:26;;;;;;;41.92;8.20;;;12.90;99.90;;;;;;4997810;28;20052;-75
2023/11/19 03:21:52;;;;;;;44.97;9.52;;;13.00;99.90;;;;;;4999302;28;20050;-75
2023/11/19 03:24:19;;;;;;;36.53;9.45;;;12.90;99.90;;;;;;5006984;28;20038;-75
2023/11/19 03:26:50;;;;;;;41.22;7.75;;;12.80;99.90;;;;;;5006320;28;20069;-75
2023/11/19 03:29:15;;;;;;;41.42;7.75;;;12.90;99.90;;;;;;5009023;28;20034;-75
2023/11/19 03:31:44;;;;;;;38.90;7.65;;;12.90;99.90;;;;;;5010586;28;20035;-75
2023/11/19 03:34:10;;;;;;;33.05;7.80;;;12.80;99.90;;;;;;5010025;28;20094;-76
2023/11/19 03:36:36;;;;;;;39.10;7.85;;;12.90;99.90;;;;;;4999930;28;20084;-75
2023/11/19 03:39:03;;;;;;;35.90;7.88;;;12.80;99.90;;;;;;5006205;28;20453;-75
2023/11/19 03:41:29;;;;;;;49.38;8.30;;;13.00;99.90;;;;;;5010880;28;20493;-75
2023/11/19 03:43:56;;;;;;;41.38;8.07;;;13.10;99.90;;;;;;5017661;28;20042;-76
2023/11/19 03:46:22;;;;;;;32.47;7.13;;;12.80;99.90;;;;;;5020369;28;20172;-75
2023/11/19 03:48:50;;;;;;;39.45;7.13;;;12.80;99.90;;;;;;5017517;28;20034;-75
2023/11/19 03:51:19;;;;;;;37.85;6.57;;;12.90;99.90;;;;;;5029679;28;20034;-75
2023/11/19 03:53:45;;;;;;;40.63;6.38;;;12.80;99.90;;;;;;5030531;28;20073;-76
2023/11/19 03:56:12;;;;;;;42.10;7.75;;;12.90;99.90;;;;;;5028151;28;20042;-75
2023/11/19 03:58:38;;;;;;;34.70;6.85;;;13.00;99.90;;;;;;5020778;28;20064;-75
2023/11/19 04:01:14;;;;;;;38.50;8.55;;;12.80;99.90;;;;;;5018860;28;20042;-75
2023/11/19 04:03:40;;;;;;;43.63;8.57;;;12.90;99.90;;;;;;5029626;28;20068;-75
2023/11/19 04:06:06;;;;;;;43.58;6.82;;;13.00;99.90;;;;;;5027749;28;20038;-75
2023/11/19 04:08:32;;;;;;;39.95;8.55;;;12.80;99.90;;;;;;5017962;28;20045;-75
2023/11/19 04:10:57;;;;;;;41.85;7.18;;;13.00;99.90;;;;;;5018025;28;20056;-75
2023/11/19 04:13:24;;;;;;;37.22;7.32;;;13.00;99.90;;;;;;5017298;28;20069;-75
2023/11/19 04:15:50;;;;;;;42.38;7.32;;;13.00;99.90;;;;;;5018016;28;20049;-75
2023/11/19 04:18:16;;;;;;;30.00;8.10;;;12.90;99.90;;;;;;5025961;28;20052;-75
2023/11/19 04:20:42;;;;;;;38.40;8.02;;;13.00;99.90;;;;;;5026107;28;20045;-75
2023/11/19 04:23:11;;;;;;;36.30;7.57;;;13.00;99.90;;;;;;5026069;28;20041;-75
2023/11/19 04:25:37;;;;;;;37.30;7.70;;;12.70;99.90;;;;;;5025803;28;20061;-75
2023/11/19 04:28:03;;;;;;;40.75;8.30;;;12.80;99.90;;;;;;5027078;28;20038;-75
2023/11/19 04:30:28;;;;;;;40.53;7.90;;;12.80;99.90;;;;;;5027462;28;20553;-75
2023/11/19 04:32:54;;;;;;;35.72;7.68;;;12.70;99.90;;;;;;5019562;28;20041;-75
2023/11/19 04:35:19;;;;;;;39.20;7.75;;;12.90;99.90;;;;;;5015182;28;20041;-75
2023/11/19 04:37:45;;;;;;;37.83;7.45;;;12.80;99.90;;;;;;4999251;28;20042;-75
2023/11/19 04:40:11;;;;;;;39.13;6.97;;;12.70;99.90;;;;;;5030352;28;20052;-75
2023/11/19 04:42:40;;;;;;;43.55;8.38;;;12.80;99.90;;;;;;5017052;28;20049;-75
2023/11/19 04:45:07;;;;;;;43.97;8.20;;;12.70;99.90;;;;;;5015363;28;20055;-75
2023/11/19 04:47:34;;;;;;;43.03;8.02;;;12.60;99.90;;;;;;5015212;28;20042;-75
2023/11/19 04:50:00;;;;;;;38.65;7.35;;;12.70;99.90;;;;;;5030160;28;20045;-75
2023/11/19 04:52:25;;;;;;;39.22;7.53;;;12.80;99.90;;;;;;5028807;28;20049;-76
2023/11/19 04:54:51;;;;;;;47.80;8.82;;;12.80;99.90;;;;;;5027952;28;20456;-75
2023/11/19 04:57:17;;;;;;;50.00;8.50;;;12.60;99.90;;;;;;5029392;28;20038;-75
2023/11/19 04:59:42;;;;;;;29.45;7.07;;;12.80;99.90;;;;;;5027823;28;20049;-75
2023/11/19 05:02:09;;;;;;;37.65;8.25;;;12.60;99.90;;;;;;5026642;28;20053;-75
2023/11/19 05:04:34;;;;;;;36.88;7.07;;;12.70;99.90;;;;;;5027680;28;20053;-75
2023/11/19 05:07:00;;;;;;;51.70;9.30;;;12.60;99.90;;;;;;5027915;28;20038;-75
2023/11/19 05:09:26;;;;;;;47.55;9.05;;;12.70;99.90;;;;;;5027549;28;20042;-75
2023/11/19 05:11:52;;;;;;;43.97;7.95;;;12.50;99.90;;;;;;5028992;28;20046;-75
2023/11/19 05:14:19;;;;;;;50.65;8.23;;;12.50;99.90;;;;;;5027231;28;20459;-75
2023/11/19 05:16:46;;;;;;;37.85;7.82;;;12.60;99.90;;;;;;5027714;28;20046;-75
2023/11/19 05:19:12;;;;;;;44.55;6.88;;;12.60;99.90;;;;;;5027414;28;20052;-75
2023/11/19 05:21:38;;;;;;;42.97;7.65;;;12.50;99.90;;;;;;5027464;28;20046;-75
2023/11/19 05:24:05;;;;;;;31.35;7.68;;;12.60;99.90;;;;;;5026252;28;20046;-75
2023/11/19 05:26:30;;;;;;;32.63;8.00;;;12.60;99.90;;;;;;5025792;28;20062;-75
2023/11/19 05:28:56;;;;;;;44.00;9.88;;;12.60;99.90;;;;;;5025191;28;20045;-75
2023/11/19 05:31:21;;;;;;;42.35;7.65;;;12.50;99.90;;;;;;5025681;28;20042;-75
2023/11/19 05:33:47;;;;;;;39.10;7.68;;;12.50;99.90;;;;;;5022394;28;20042;-75
2023/11/19 05:36:13;;;;;;;41.70;9.38;;;12.40;99.90;;;;;;5024576;28;20092;-75
2023/11/19 05:38:39;;;;;;;44.72;7.18;;;12.60;99.90;;;;;;5025345;28;20046;-75
2023/11/19 05:41:05;;;;;;;33.70;6.75;;;12.50;99.90;;;;;;5021865;28;20058;-75
2023/11/19 05:43:31;;;;;;;36.70;7.90;;;12.50;99.90;;;;;;5022900;28;20042;-74
2023/11/19 05:45:57;;;;;;;31.65;6.57;;;12.50;99.90;;;;;;5023574;28;20121;-75
2023/11/19 05:48:23;;;;;;;48.50;8.98;;;12.40;99.90;;;;;;5024812;28;20041;-74
2023/11/19 05:50:49;;;;;;;35.30;8.38;;;12.60;99.90;;;;;;5023758;28;20034;-75
2023/11/19 05:53:15;;;;;;;46.90;8.90;;;12.60;99.90;;;;;;5012067;28;20045;-75
2023/11/19 05:55:54;;;;;;;38.03;7.70;;;12.60;99.90;;;;;;5011763;28;20151;-75
2023/11/19 05:58:23;;;;;;;41.55;7.13;;;12.60;99.90;;;;;;5014182;28;20165;-75
2023/11/19 06:00:50;;;;;;;40.88;7.40;;;12.40;99.90;;;;;;5017886;28;20034;-75
2023/11/19 06:03:16;;;;;;;34.35;7.43;;;12.50;99.90;;;;;;5017897;28;20053;-74
2023/11/19 06:05:45;;;;;;;45.63;8.38;;;12.40;99.90;;;;;;5018049;28;20046;-75
2023/11/19 06:08:11;;;;;;;43.67;6.97;;;12.30;99.90;;;;;;5016445;28;20603;-74
2023/11/19 06:10:39;;;;;;;30.88;7.18;;;12.30;99.90;;;;;;5016872;28;20074;-74
2023/11/19 06:13:04;;;;;;;41.15;7.63;;;12.30;99.90;;;;;;5016247;28;20052;-75
2023/11/19 06:15:31;;;;;;;37.67;8.10;;;12.40;99.90;;;;;;5016492;28;20064;-75
2023/11/19 06:17:59;;;;;;;38.83;9.85;;;12.30;99.90;;;;;;5027380;28;20070;-74
2023/11/19 06:20:27;;;;;;;40.38;8.35;;;12.40;99.90;;;;;;5009215;28;20577;-75
2023/11/19 06:22:53;;;;;;;35.85;6.95;;;12.40;99.90;;;;;;5008472;28;20038;-74
2023/11/19 06:25:19;;;;;;;36.83;6.15;;;12.20;99.90;;;;;;5023894;28;20061;-74
2023/11/19 06:27:45;;;;;;;34.70;6.75;;;12.30;99.90;;;;;;5027390;28;20073;-74
2023/11/19 06:30:11;;;;;;;35.00;8.05;;;12.30;99.90;;;;;;5027292;28;20046;-74
2023/11/19 06:32:37;;;;;;;45.47;8.77;;;12.20;99.90;;;;;;5009097;28;20054;-75
2023/11/19 06:35:04;;;;;;;40.53;8.45;;;12.30;99.90;;;;;;5024067;28;20093;-75
2023/11/19 06:37:30;;;;;;;49.97;8.82;;;12.20;99.90;;;;;;5023420;28;20050;-75
2023/11/19 06:39:56;;;;;;;31.52;7.10;;;12.20;99.90;;;;;;5023341;28;20117;-75
2023/11/19 06:42:21;;;;;;;39.35;6.60;;;12.20;99.90;;;;;;5023136;28;20042;-77
2023/11/19 06:44:47;;;;;;;43.72;7.78;;;12.30;99.90;;;;;;5022936;28;20044;-75
2023/11/19 06:47:13;;;;;;;42.90;7.45;;;12.30;99.90;;;;;;5022540;28;20501;-74
2023/11/19 06:49:38;;;;;;;43.20;8.20;;;12.30;99.90;;;;;;5021512;28;20061;-75
2023/11/19 06:52:04;;;;;;;36.30;7.28;;;12.20;99.90;;;;;;5016725;28;20029;-74
2023/11/19 06:54:30;;;;;;;33.72;7.38;;;12.30;99.90;;;;;;5016540;28;20073;-74
2023/11/19 06:56:57;;;;;;;35.60;6.97;;;12.10;99.90;;;;;;5022370;28;20049;-75
2023/11/19 06:59:23;;;;;;;37.50;6.63;;;12.20;99.90;;;;;;5023918;28;20520;-74
2023/11/19 07:01:49;;;;;;;33.92;6.68;;;12.20;99.90;;;;;;5023402;28;20041;-75
2023/11/19 07:04:14;;;;;;;32.15;6.72;;;12.20;99.90;;;;;;5024070;28;20038;-75
2023/11/19 07:06:43;;;;;;;39.85;6.97;;;12.10;99.90;;;;;;5022720;28;20041;-75
2023/11/19 07:09:12;;;;;;;38.50;7.20;;;12.10;99.90;;;;;;5023730;28;20053;-75
2023/11/19 07:11:41;;;;;;;32.50;7.18;;;12.10;99.90;;;;;;5022775;28;20049;-75
2023/11/19 07:14:08;;;;;;;40.75;8.70;;;12.00;99.90;;;;;;5022967;28;20046;-75
2023/11/19 07:16:37;;;;;;;38.80;7.82;;;12.00;99.90;;;;;;5022924;28;20045;-75
2023/11/19 07:19:03;;;;;;;33.65;6.50;;;12.00;99.90;;;;;;5024580;28;20056;-74
2023/11/19 07:21:28;;;;;;;45.33;9.73;;;12.20;99.90;;;;;;5024656;28;20050;-75
2023/11/19 07:23:55;;;;;;;30.33;7.10;;;12.10;99.90;;;;;;5023735;28;20144;-75
2023/11/19 07:26:21;;;;;;;39.22;8.77;;;12.10;99.90;;;;;;5024279;28;20049;-74
2023/11/19 07:28:47;;;;;;;42.40;6.53;;;12.10;99.90;;;;;;5015219;28;20456;-76
2023/11/19 07:31:13;;;;;;;31.73;5.97;;;12.10;99.90;;;;;;5013958;28;20029;-76
2023/11/19 07:33:39;;;;;;;35.78;8.95;;;12.10;99.90;;;;;;5012573;28;20096;-75
2023/11/19 07:36:05;;;;;;;35.33;6.97;;;12.00;99.90;;;;;;5012393;28;20093;-76
2023/11/19 07:38:31;;;;;;;33.33;6.47;;;12.10;99.90;;;;;;5012439;28;20124;-75
2023/11/19 07:40:56;;;;;;;41.90;8.32;;;12.00;99.90;;;;;;5012584;28;20173;-78
2023/11/19 07:43:22;;;;;;;34.38;8.25;;;12.00;99.90;;;;;;5012238;28;20049;-75
2023/11/19 07:45:48;;;;;;;45.33;7.90;;;12.00;99.90;;;;;;5012057;28;20033;-76
2023/11/19 07:48:13;;;;;;;31.13;7.10;;;12.10;99.90;;;;;;5010507;28;20666;-75
2023/11/19 07:50:42;;;;;;;43.47;6.93;;;12.00;99.90;;;;;;5002542;28;20174;-75
2023/11/19 07:53:08;;;;;;;42.42;7.82;;;11.90;99.90;;;;;;5003652;28;20049;-75
2023/11/19 07:55:34;;;;;;;38.03;6.90;;;11.90;99.90;;;;;;4993971;28;20050;-76
2023/11/19 07:58:00;;;;;;;35.33;6.10;;;12.00;99.90;;;;;;4992751;28;20046;-75
2023/11/19 08:00:25;;;;;;;33.65;7.28;;;11.90;99.90;;;;;;4992394;28;20050;-75
2023/11/19 08:02:51;;;;;;;27.83;7.45;;;11.90;99.90;;;;;;4992369;28;20129;-75
2023/11/19 08:05:16;;;;;;;41.40;7.85;;;12.00;99.90;;;;;;4992047;28;20077;-75
2023/11/19 08:07:42;;;;;;;37.75;10.23;;;12.00;99.90;;;;;;4992439;28;20077;-75
2023/11/19 08:10:09;;;;;;;37.42;7.40;;;12.10;99.90;;;;;;4992173;28;20034;-75
2023/11/19 08:12:35;;;;;;;38.03;8.60;;;12.00;99.90;;;;;;4995156;28;20500;-75
2023/11/19 08:15:02;;;;;;;35.20;6.70;;;11.90;99.90;;;;;;4991949;28;20042;-75
2023/11/19 08:17:28;;;;;;;40.10;8.88;;;11.90;99.90;;;;;;4992447;28;20379;-75
2023/11/19 08:19:53;;;;;;;42.70;7.63;;;12.10;99.90;;;;;;4991887;28;20057;-75
2023/11/19 08:22:22;;;;;;;42.38;7.10;;;12.10;99.90;;;;;;4975715;28;20065;-75
2023/11/19 08:24:48;;;;;;;38.95;8.32;;;12.00;99.90;;;;;;4991867;28;20573;-75
2023/11/19 08:27:14;;;;;;;35.67;7.30;;;12.10;99.90;;;;;;4993118;28;20489;-76
2023/11/19 08:29:40;;;;;;;36.13;6.40;;;12.10;99.90;;;;;;4992120;28;20034;-75
2023/11/19 08:32:06;;;;;;;25.73;5.85;;;12.10;99.90;;;;;;4991882;28;20508;-75
2023/11/19 08:34:32;;;;;;;31.40;6.28;;;12.10;99.90;;;;;;4991751;28;20053;-75
2023/11/19 08:36:58;;;;;;;35.47;6.60;;;12.00;99.90;;;;;;4991773;28;20042;-75
2023/11/19 08:39:24;;;;;;;33.17;7.07;;;12.10;99.90;;;;;;4991634;28;20043;-75
2023/11/19 08:41:50;;;;;;;21.15;5.30;;;12.10;99.90;;;;;;4991561;28;20038;-75
2023/11/19 08:44:16;;;;;;;27.92;6.47;;;12.10;99.90;;;;;;4991911;28;20050;-75
2023/11/19 08:46:51;;;;;;;42.85;7.43;;;12.10;99.90;;;;;;4991301;28;20042;-75
2023/11/19 08:49:17;;;;;;;29.98;7.20;;;12.20;99.90;;;;;;4991781;28;20034;-75
2023/11/19 08:51:44;;;;;;;31.60;6.50;;;12.10;99.90;;;;;;5002915;28;20074;-75
2023/11/19 08:54:10;;;;;;;40.83;9.00;;;12.10;99.90;;;;;;4999905;28;20038;-75
2023/11/19 08:56:36;;;;;;;36.33;6.97;;;12.10;99.90;;;;;;5001250;28;20038;-75
2023/11/19 08:59:02;;;;;;;40.70;7.25;;;12.00;99.90;;;;;;4997393;28;20048;-75
2023/11/19 09:01:28;;;;;;;32.83;6.47;;;12.10;99.90;;;;;;5002380;28;20045;-76
2023/11/19 09:03:54;;;;;;;42.65;6.88;;;12.00;99.90;;;;;;4992991;28;20077;-77
2023/11/19 09:06:19;;;;;;;37.92;7.00;;;12.00;99.90;;;;;;5010449;28;20429;-76
2023/11/19 09:08:45;;;;;;;34.15;8.40;;;12.20;99.90;;;;;;4987343;28;20096;-77
2023/11/19 09:11:11;;;;;;;33.58;7.82;;;12.10;99.90;;;;;;5003729;28;20085;-76
2023/11/19 09:13:37;;;;;;;28.50;7.28;;;12.10;99.90;;;;;;5007804;28;20069;-76
2023/11/19 09:16:06;;;;;;;32.92;6.93;;;12.00;99.90;;;;;;5005185;28;20077;-76
2023/11/19 09:18:32;;;;;;;38.13;6.32;;;12.10;99.90;;;;;;5006909;28;20132;-76
2023/11/19 09:20:58;;;;;;;38.47;7.63;;;12.00;99.90;;;;;;5003932;28;20073;-75
2023/11/19 09:23:25;;;;;;;41.03;9.45;;;11.90;99.90;;;;;;5004944;28;20453;-75
2023/11/19 09:25:51;;;;;;;41.08;6.95;;;11.90;99.90;;;;;;4981595;28;20046;-75
2023/11/19 09:28:16;;;;;;;41.45;8.02;;;12.00;99.90;;;;;;5008825;28;20609;-75
2023/11/19 09:30:42;;;;;;;36.47;7.47;;;12.10;99.90;;;;;;5008622;28;20034;-76
2023/11/19 09:33:07;;;;;;;34.05;7.65;;;12.30;99.90;;;;;;5004457;28;20046;-76
2023/11/19 09:35:33;;;;;;;46.78;8.50;;;12.30;99.90;;;;;;5013032;28;20060;-76
2023/11/19 09:37:59;;;;;;;42.05;7.07;;;12.50;99.90;;;;;;5011389;28;20073;-75
2023/11/19 09:40:25;;;;;;;40.50;6.82;;;12.50;99.90;;;;;;4994844;28;20523;-74
2023/11/19 09:42:51;;;;;;;38.50;8.68;;;12.70;99.90;;;;;;5014334;28;20048;-76
2023/11/19 09:45:20;;;;;;;36.55;7.28;;;12.60;99.90;;;;;;5011829;28;20042;-75
2023/11/19 09:47:46;;;;;;;37.33;7.75;;;12.70;99.90;;;;;;5012688;28;20053;-76
2023/11/19 09:50:19;;;;;;;34.47;7.20;;;12.60;99.90;;;;;;5006089;28;20399;-75
2023/11/19 09:52:45;;;;;;;50.13;6.75;;;12.60;99.90;;;;;;4994599;28;20524;-75
2023/11/19 09:55:11;;;;;;;36.58;5.93;;;12.70;99.90;;;;;;5010721;28;20046;-76
2023/11/19 09:57:39;;;;;;;39.83;7.03;;;12.80;99.90;;;;;;5013692;28;20087;-75
2023/11/19 10:00:05;;;;;;;34.42;5.85;;;12.80;99.90;;;;;;5002186;28;20046;-76
2023/11/19 10:02:33;;;;;;;35.90;7.07;;;12.80;99.90;;;;;;4995233;28;20038;-76
2023/11/19 10:05:03;;;;;;;35.65;7.82;;;12.70;99.90;;;;;;4994870;28;20046;-75
2023/11/19 10:07:28;;;;;;;34.25;6.38;;;12.70;99.90;;;;;;5012713;28;20141;-75
2023/11/19 10:09:54;;;;;;;29.08;5.63;;;12.70;99.90;;;;;;5012119;28;20155;-76
2023/11/19 10:12:20;;;;;;;28.92;5.68;;;12.60;99.90;;;;;;5013266;28;20034;-76
2023/11/19 10:14:47;;;;;;;37.78;6.55;;;12.60;99.90;;;;;;5013706;28;20050;-76
2023/11/19 10:17:13;;;;;;;39.65;6.88;;;12.60;99.90;;;;;;5011877;28;20077;-76
2023/11/19 10:19:41;;;;;;;35.65;6.07;;;12.60;99.90;;;;;;5014902;28;20081;-76
2023/11/19 10:22:07;;;;;;;35.85;8.02;;;12.60;99.90;;;;;;5010640;28;20046;-74
2023/11/19 10:24:34;;;;;;;39.75;7.50;;;12.50;99.90;;;;;;5014766;28;20042;-75
2023/11/19 10:27:03;;;;;;;29.13;6.90;;;12.60;99.90;;;;;;5010326;28;20442;-75
2023/11/19 10:29:29;;;;;;;32.75;7.68;;;12.50;99.90;;;;;;5011818;28;20096;-75
2023/11/19 10:31:56;;;;;;;37.42;8.98;;;12.50;99.90;;;;;;5014916;28;20034;-76
2023/11/19 10:34:26;;;;;;;38.47;8.02;;;12.60;99.90;;;;;;5013837;28;20046;-75
2023/11/19 10:36:52;;;;;;;39.35;6.90;;;12.30;99.90;;;;;;5014575;28;20517;-76
2023/11/19 10:39:18;;;;;;;38.33;6.57;;;12.30;99.90;;;;;;5011212;28;20081;-76
2023/11/19 10:41:43;;;;;;;31.95;6.90;;;12.30;99.90;;;;;;5014674;28;20076;-77
2023/11/19 10:44:09;;;;;;;35.72;6.13;;;12.20;99.90;;;;;;5014278;28;20117;-76
2023/11/19 10:46:40;;;;;;;33.70;8.75;;;12.30;99.90;;;;;;5009669;28;20038;-76
2023/11/19 10:49:06;;;;;;;37.03;7.03;;;12.30;99.90;;;;;;5005801;28;20109;-75
2023/11/19 10:51:32;;;;;;;37.65;6.82;;;12.20;99.90;;;;;;5009675;28;20084;-75
2023/11/19 10:54:06;;;;;;;43.40;7.28;;;12.30;99.90;;;;;;5004678;28;20066;-75
2023/11/19 10:56:35;;;;;;;39.17;7.25;;;12.20;99.90;;;;;;5012289;28;20042;-75
2023/11/19 10:59:03;;;;;;;31.33;6.40;;;12.20;99.90;;;;;;5009724;28;20042;-76
2023/11/19 11:01:45;;;;;;;33.97;6.25;;;12.40;99.90;;;;;;5007963;28;20053;-76
2023/11/19 11:04:17;;;;;;;29.60;6.55;;;12.30;99.90;;;;;;5009937;28;20129;-76
2023/11/19 11:06:43;;;;;;;38.10;8.10;;;12.30;99.90;;;;;;5010109;28;20057;-76
2023/11/19 11:09:12;;;;;;;39.28;6.90;;;12.20;99.90;;;;;;5009850;28;20038;-75
2023/11/19 11:11:40;;;;;;;36.22;6.57;;;12.20;99.90;;;;;;5009442;28;20116;-76
2023/11/19 11:14:07;;;;;;;29.95;6.38;;;12.20;99.90;;;;;;5007473;28;20099;-76
2023/11/19 11:16:34;;;;;;;38.00;7.35;;;12.40;99.90;;;;;;5010420;28;20061;-76
2023/11/19 11:19:00;;;;;;;35.10;6.05;;;12.30;99.90;;;;;;5006369;28;20052;-76
2023/11/19 11:21:27;;;;;;;42.13;8.30;;;12.40;99.90;;;;;;5012570;28;20045;-75
2023/11/19 11:24:14;;;;;;;35.22;6.47;;;12.50;99.90;;;;;;5009233;28;20548;-76
2023/11/19 11:26:52;;;;;;;40.22;6.93;;;12.50;99.90;;;;;;4994656;28;20053;-76
2023/11/19 11:30:05;;;;;;;35.45;7.50;;;12.50;99.90;;;;;;5009534;28;20053;-75
2023/11/19 11:32:59;;;;;;;38.63;6.78;;;12.60;99.90;;;;;;4967187;28;20457;-75
2023/11/19 11:35:46;;;;;;;30.10;5.25;;;12.60;99.90;;;;;;5012045;28;20049;-75
2023/11/19 11:38:14;;;;;;;49.58;7.70;;;12.60;99.90;;;;;;4982164;28;20061;-74
2023/11/19 11:40:40;;;;;;;31.25;6.38;;;12.70;99.90;;;;;;5010157;28;20386;-75
2023/11/19 11:43:45;;;;;;;39.55;8.32;;;12.50;99.90;;;;;;5007840;28;20092;-76
2023/11/19 11:46:33;;;;;;;36.95;6.80;;;12.50;99.90;;;;;;4983767;28;20065;-76
2023/11/19 11:49:04;;;;;;;37.17;7.97;;;12.60;99.90;;;;;;5004037;28;20050;-76
2023/11/19 11:51:45;;;;;;;32.58;8.52;;;12.50;99.90;;;;;;5006884;28;20065;-76
2023/11/19 11:54:20;;;;;;;38.75;7.22;;;12.50;99.90;;;;;;5011961;28;20048;-75
2023/11/19 11:57:12;;;;;;;35.97;6.13;;;12.60;99.90;;;;;;5010929;28;20137;-75
2023/11/19 11:59:45;;;;;;;26.27;5.35;;;12.50;99.90;;;;;;5011610;28;20044;-76
2023/11/19 12:02:16;;;;;;;33.28;6.00;;;12.50;99.90;;;;;;4995116;28;20127;-75
2023/11/19 12:04:43;;;;;;;31.77;5.75;;;12.60;99.90;;;;;;5009376;28;20064;-75
2023/11/19 12:07:22;;;;;;;45.28;7.07;;;12.50;99.90;;;;;;5011645;28;20405;-77
2023/11/19 12:09:55;;;;;;;32.53;6.35;;;12.60;99.90;;;;;;5008439;28;20034;-76
2023/11/19 12:12:28;;;;;;;24.93;5.07;;;12.60;99.90;;;;;;5011508;28;20038;-79
2023/11/19 12:15:01;;;;;;;28.42;6.50;;;12.60;99.90;;;;;;5011437;28;20132;-76
2023/11/19 12:17:32;;;;;;;32.42;7.60;;;12.40;99.90;;;;;;5011770;28;20081;-76
2023/11/19 12:20:08;;;;;;;37.33;6.40;;;12.40;99.90;;;;;;5011812;28;20137;-75
2023/11/19 12:22:38;;;;;;;31.30;6.45;;;12.50;99.90;;;;;;5012873;28;20175;-75
2023/11/19 12:25:08;;;;;;;27.60;5.72;;;12.70;99.90;;;;;;4995095;28;20069;-75
2023/11/19 12:27:35;;;;;;;34.08;5.53;;;12.60;99.90;;;;;;5044630;28;20127;-75
2023/11/19 12:30:04;;;;;;;29.83;5.80;;;12.70;99.90;;;;;;5002799;28;20034;-76
2023/11/19 12:32:41;;;;;;;38.22;5.93;;;12.80;99.90;;;;;;5001236;28;20091;-76
2023/11/19 12:35:11;;;;;;;33.72;6.78;;;12.70;99.90;;;;;;5024504;28;20119;-75
2023/11/19 12:37:47;;;;;;;37.55;7.57;;;12.70;99.90;;;;;;5005283;28;20040;-75